Terminal Aerodrome Forecast
Issued by NWS Cleveland, OH

Home | Current Version | Previous Version | Text Only | Print | Product List | Glossary Off
Versions: 1 2 3 4 5 6 7 8 9 10 11 12 13 14 15 16 17 18 19 20

920
FTUS41 KCLE 221735
TAFYNG
TAF
KYNG 221735Z 2218/2318 25011KT P6SM SCT020 BKN040
     FM222000 23010KT P6SM VCTS BKN040CB
     FM230000 24006KT P6SM SCT040
     FM230600 32002KT 4SM BR SCT010
     FM231400 28006KT P6SM SCT035=

USA.gov is the U.S. government's official web portal to all federal, state and local government web resources and services.